[000:058] [2025-10-10 13:31:20 +0000.
580132][eb5] Log to
file:/storage/emulated/0/voip-data/[Link]/[Link] start time:2025-10-
10 13:31:20 +0000
[000:058] [2025-10-10 13:31:20 +0000.580335][eb5] set AppID=50011 old AppID=-1
[000:058] [2025-10-10 13:31:20 +0000.580396][eb5] Init the android object with
jvm:0xb4000076bbbf6180 env:0x75ee003440 context:0x758ba23478
[000:058] [2025-10-10 13:31:20 +0000.580437][eb5] SetAndroidMediaCodecObjects
time:6376624 enter.
[000:058] [2025-10-10 13:31:20 +0000.580475][eb5] SetAndroidMediaCodecObjects
leave. expire time = 0 ms
[000:058] [2025-10-10 13:31:20 +0000.580506][eb5] SetAndroidMediaCodecObjects
time:6376624 enter.
[000:058] [2025-10-10 13:31:20 +0000.580543][eb5] SetAndroidMediaCodecObjects:
SetAndroidMediaCodecObjects:: jvm :0xb4000076bbbf6180
[000:058] [2025-10-10 13:31:20 +0000.580577][eb5] SetAndroidMediaCodecObjects:
SetAndroidMediaCodecObjects success g_jvm_:0xb4000076bbbf6180 address:0x74bb2ed760
[000:058] [2025-10-10 13:31:20 +0000.580608][eb5] SetAndroidMediaCodecObjects:
SetAndroidMediaCodecObjects success g_jvm_encoder_:0xb4000076bbbf6180
address:0x74bb2ed760
[000:058] [2025-10-10 13:31:20 +0000.580637][eb5] SetAndroidMediaCodecObjects
leave. expire time = 0 ms
[000:058] [2025-10-10 13:31:20 +0000.580684][eb5] Set the android objects with
jvm:0xb4000076bbbf6180 env:0x75ee003440 context:0x758ba23478
[000:058] [2025-10-10 13:31:20 +0000.580715][eb5] audio jni debug :manager
SetAndroidAudioDeviceObjects env:0x75ee003440
[000:058] [2025-10-10 13:31:20 +0000.580738][eb5] SystemUtil Init done
[000:062] [2025-10-10 13:31:20 +0000.584113][eb5]
Java_com_xiaomi_recordmediaprocess_MediaEffectCamera_ConstructMediaEffectCameraJni:
[000:062] [2025-10-10 13:31:20 +0000.584353][eb5] MediaFilterCamera
[000:062] [2025-10-10 13:31:20 +0000.584408][eb5] RecordingSessionInternalSimple:
Create session internal:720 X 1280 fps:30
[000:063] [2025-10-10 13:31:20 +0000.585138][eb5] createSessionInternal: create
session with video size:720 X 1280 fps:30 bitrate:31457280
[000:063] [2025-10-10 13:31:20 +0000.585196][eb5] Recording session using default
bitrate support by app:31457280
[000:063] [2025-10-10 13:31:20 +0000.585545][182b] Error([Link]): Set the
pthread name failed with error:34 name:Thread 0x0x754392bc40
[000:063] [2025-10-10 13:31:20 +0000.585613][182b] setAudioChannelCount_w:
RecordingSessionInternalSimple:set the audio channel count:2
[000:063] [2025-10-10 13:31:20 +0000.585723][eb5] setAudioSampleRate:
RecordingSessionInternalSimple:set the audio bitrate:44100
[000:064] [2025-10-10 13:31:20 +0000.586444][eb5] Error([Link]): Open the file
failed. error:2
[000:064] [2025-10-10 13:31:20 +0000.586493][eb5]
Error(key_value_pair_store.cc:130): load the data failed from: voip_config.ini
[000:064] [2025-10-10 13:31:20 +0000.586525][eb5] The device model: m2101k6i
usingSoftwareAEC value: 0
[000:067] [2025-10-10 13:31:20 +0000.589289][eb5] Error([Link]): Open the file
failed. error:2
[000:067] [2025-10-10 13:31:20 +0000.589361][eb5]
Error(key_value_pair_store.cc:130): load the data failed from:
/storage/emulated/0/voip-data/[Link]/voip_config.ini
[000:067] [2025-10-10 13:31:20 +0000.589427][eb5] The device model: m2101k6i
usingHardwareAEC value: 0
[000:067] [2025-10-10 13:31:20 +0000.589448][eb5] The machine device: m2101k6i
usingHardwareAEC value: 0
[000:067] [2025-10-10 13:31:20 +0000.589561][eb5] Using Default AEC type: software
AEC
[000:068] [2025-10-10 13:31:20 +0000.590609][eb5] The device model: m2101k6i enum
value: 0
[000:070] [2025-10-10 13:31:20 +0000.592478][eb5] GetMachineModel is M2101K6I
[000:070] [2025-10-10 13:31:20 +0000.592555][eb5] GetMachineInfo: M2101K6I
[000:070] [2025-10-10 13:31:20 +0000.592587][eb5] Construct BeautifyReader begin...
[000:070] [2025-10-10 13:31:20 +0000.592685][eb5] dumpStickerRgba:0
dumpStickerYuv:0
[000:070] [2025-10-10 13:31:20 +0000.592701][eb5] Construct BeautifyReader done.
[000:075] [2025-10-10 13:31:20 +0000.597619][eb5] Error([Link]): Open the file
failed. error:2
[000:075] [2025-10-10 13:31:20 +0000.597696][eb5]
Error(key_value_pair_store.cc:130): load the data failed from:
/storage/emulated/0/voip-data/[Link]/support_resolution.txt
[000:076] [2025-10-10 13:31:20 +0000.598337][eb5] AppDeviceManagerStartCamera::The
result of start thread is: 1 micOn:0
[000:076] [2025-10-10 13:31:20 +0000.598398][eb5] AppDeviceManager telnet server
for statistics started......
[000:076] [2025-10-10 13:31:20 +0000.598436][182f] Error([Link]): Set the
pthread name failed with error:34 name:Thread 0x0x758c0acca0
[000:077] [2025-10-10 13:31:20 +0000.598880][eb5] CpuOverloadDetect time:6376643
enter.
[000:077] [2025-10-10 13:31:20 +0000.599011][eb5] CpuOverloadDetect leave. expire
time = 0 ms
[000:077] [2025-10-10 13:31:20 +0000.599192][1830] Error([Link]): Set the
pthread name failed with error:34 name:Thread 0x0x7543a33b40
[000:077] [2025-10-10 13:31:20 +0000.599535][eb5] AppDeviceMana GetOpenslVoiceMode
before get setting: 1
[000:077] [2025-10-10 13:31:20 +0000.599567][eb5] AppDeviceMana GetOpenslVoiceMode
after get setting: 1
[000:079] [2025-10-10 13:31:20 +0000.601474][eb5] AudioManagerAndroid
getProperty:[Link].OUTPUT_SAMPLE_RATE
[000:080] [2025-10-10 13:31:20 +0000.601951][eb5] AudioManagerAndroid
getProperty:[Link].OUTPUT_FRAMES_PER_BUFFER
[000:080] [2025-10-10 13:31:20 +0000.602473][eb5] CreatePlatformSpecificObjects:
[000:080] [2025-10-10 13:31:20 +0000.602537][eb5] audio device use opensle input
and opensl output
[000:080] [2025-10-10 13:31:20 +0000.602576][eb5] Create OpenSLES output module
with java VM support.
[000:080] [2025-10-10 13:31:20 +0000.602711][eb5] AudioManagerAndroid
getProperty:[Link].OUTPUT_SAMPLE_RATE
[000:081] [2025-10-10 13:31:20 +0000.602901][eb5] AudioManagerAndroid
getProperty:[Link].OUTPUT_FRAMES_PER_BUFFER
[000:081] [2025-10-10 13:31:20 +0000.603082][eb5] Create OpenSLES output module
with buffer num:1
[000:081] [2025-10-10 13:31:20 +0000.603248][eb5] AudioManagerAndroid
getProperty:[Link].OUTPUT_SAMPLE_RATE
[000:081] [2025-10-10 13:31:20 +0000.603475][eb5] AudioManagerAndroid
getProperty:[Link].OUTPUT_FRAMES_PER_BUFFER
[000:081] [2025-10-10 13:31:20 +0000.603697][eb5] Create OpenSLES input module with
java VM support.
[000:081] [2025-10-10 13:31:20 +0000.603736][eb5] Create OpenSLES input module with
buffer num:1
[000:081] [2025-10-10 13:31:20 +0000.603779][eb5] Error([Link]): Init the
output and input for audio device template.
[000:081] [2025-10-10 13:31:20 +0000.603802][eb5] Init the output device.
[000:082] [2025-10-10 13:31:20 +0000.603830][eb5] Init the opensl input.
[000:082] [2025-10-10 13:31:20 +0000.603847][eb5] AppDeviceManager get setting
samplerate: 0
[000:082] [2025-10-10 13:31:20 +0000.604180][eb5] The device model: m2101k6i enum
value: 0
[000:082] [2025-10-10 13:31:20 +0000.604616][eb5] The device model: m2101k6i enum
value: 0
[000:082] [2025-10-10 13:31:20 +0000.604649][eb5] Set the sample rate to be:48000
[000:082] [2025-10-10 13:31:20 +0000.604676][eb5] Enable the recording stereo:0
[000:082] [2025-10-10 13:31:20 +0000.604705][eb5] Set the playout as stereo:1
[000:082] [2025-10-10 13:31:20 +0000.604730][eb5] Init the microphone.
[000:087] [2025-10-10 13:31:20 +0000.609710][eb5] Update the recording sample rate
to be: 48000
[000:088] [2025-10-10 13:31:20 +0000.609880][eb5] Init the speaker.
[000:088] [2025-10-10 13:31:20 +0000.610006][eb5] Low latency buffer size:144 low
sample rate:48000
[000:088] [2025-10-10 13:31:20 +0000.610569][eb5] Using 1 x 10ms for an audio
frame.
[000:092] [2025-10-10 13:31:20 +0000.613999][eb5] Error(splitting_filter.cc:26):
Splitting filter only support two or three bands now.
[000:092] [2025-10-10 13:31:20 +0000.614117][eb5] Error(splitting_filter.cc:26):
Splitting filter only support two or three bands now.
[000:092] [2025-10-10 13:31:20 +0000.614203][eb5] Error(splitting_filter.cc:26):
Splitting filter only support two or three bands now.
[000:097] [2025-10-10 13:31:20 +0000.619085][eb5] The device model:m2101k6i
[000:097] [2025-10-10 13:31:20 +0000.619199][eb5] speaker output factor:100
defaultFactor: 100
[000:097] [2025-10-10 13:31:20 +0000.619248][eb5] headset output factor:100
defaultFactor: 100
[000:097] [2025-10-10 13:31:20 +0000.619607][eb5] AppDeviceManagerStart finished.
[000:097] [2025-10-10 13:31:20 +0000.619641][eb5] AppDeviceManagerStartMic::mic
status is off
[000:097] [2025-10-10 13:31:20 +0000.619690][eb5] AppDeviceManagerStartMic update
aec type: 2
[000:097] [2025-10-10 13:31:20 +0000.619712][eb5] AppDeviceManagerStartMic update
voiceChangeMode: 4
[000:097] [2025-10-10 13:31:20 +0000.619726][eb5]
AudioDeviceDataHandler::setVoiceChangeMode, mode : 4
[000:097] [2025-10-10 13:31:20 +0000.619750][eb5]
AudioDeviceDataHandler::StartMicProcess
[000:098] [2025-10-10 13:31:20 +0000.619853][eb5] Try to start webrtc recording
device.
[000:098] [2025-10-10 13:31:20 +0000.619880][eb5] StartRecording. threadID:3765
[000:098] [2025-10-10 13:31:20 +0000.620231][eb5] The machine model:M2101K6I
[000:098] [2025-10-10 13:31:20 +0000.620291][eb5] default mode: Set the recording
mode to voice communication to enable HW AEC .
[000:098] [2025-10-10 13:31:20 +0000.620316][eb5] Set the recording mode before
getSetting: 4
[000:098] [2025-10-10 13:31:20 +0000.620345][eb5] Set the recording mode after
getSetting: 1
[000:103] [2025-10-10 13:31:20 +0000.625485][1832] Error([Link]): Set the
pthread name failed with error:34 name:AudioDeviceDataHandler gapProcessThread
[000:103] [2025-10-10 13:31:20 +0000.625604][1832] haveEnoughProcessedData
[Link]: 0
[000:178] [2025-10-10 13:31:20 +0000.700699][eb5] StartRecording finished.
[000:178] [2025-10-10 13:31:20 +0000.700753][eb5] audio: start the audio mic
checker timer.
[000:179] [2025-10-10 13:31:20 +0000.701252][eb5] machine model :redmi
[000:179] [2025-10-10 13:31:20 +0000.701302][eb5] Support this machine model :redmi
[000:179] [2025-10-10 13:31:20 +0000.701400][eb5] global inited! current sdk
version: 07-20-936c45f
[000:296] [2025-10-10 13:31:20 +0000.818098][1833] webrtc device:Handle the data
from samplesPerSec recording sample rate:48000 nSamples:480 nBytesPerSample:#
nChannels:#
[000:296] [2025-10-10 13:31:20 +0000.818190][1833] _deviceSampleRate:48000
[000:301] [2025-10-10 13:31:20 +0000.823583][1832] Run AGC when audioType = 0
[000:301] [2025-10-10 13:31:20 +0000.823682][1832]
AudioDeviceDataHandler::MixAndSendOutFrame
[000:659] [2025-10-10 13:31:21 +0000.180863][10c2]
Java_com_xiaomi_recordmediaprocess_OpenGlRender_SetCurrentGLContextJni:
[000:659] [2025-10-10 13:31:21 +0000.181094][182d] MediaFilterCamera, recording
file context:0x752348ff00 input texture:18
[000:659] [2025-10-10 13:31:21 +0000.181217][182d] GLESContext:
[000:659] [2025-10-10 13:31:21 +0000.181294][182d] The result of eglGetDisplay is:
0xb4000076bbc68480
[000:660] [2025-10-10 13:31:21 +0000.182570][182d] The result of creation:
0x7539e88480
[000:661] [2025-10-10 13:31:21 +0000.182822][182d] The result of
eglCreatePbufferSurface is: 0x7539e88a80
[000:661] [2025-10-10 13:31:21 +0000.183022][10c2]
Java_com_xiaomi_recordmediaprocess_OpenGlRender_SetCurrentGLContextJni:
g_eglcontext: 0x752348ff00 input_texture: 18
[001:878] [2025-10-10 13:31:22 +0000.400728][1832] haveEnoughProcessedData
[Link]: 20
[002:300] [2025-10-10 13:31:22 +0000.822060][1832] Run AGC when audioType = 0
[003:591] [2025-10-10 13:31:24 +0000.113764][1832] haveEnoughProcessedData
[Link]: 0
[004:182] [2025-10-10 13:31:24 +0000.704240][1827]
monitorTime:4004totalDuration:3900
[004:301] [2025-10-10 13:31:24 +0000.823330][1832] Run AGC when audioType = 0
[004:301] [2025-10-10 13:31:24 +0000.823575][1832]
AudioDeviceDataHandler::MixAndSendOutFrame
[005:305] [2025-10-10 13:31:25 +0000.827031][1832] haveEnoughProcessedData
[Link]: 0
[006:301] [2025-10-10 13:31:26 +0000.823285][1832] Run AGC when audioType = 0
[007:017] [2025-10-10 13:31:27 +0000.539314][1832] haveEnoughProcessedData
[Link]: 0
[007:506] [2025-10-10 13:31:28 +0000.28230][eb5]
Java_com_xiaomi_recordmediaprocess_MediaEffectCamera_DestructMediaEffectCameraJni:
[007:506] [2025-10-10 13:31:28 +0000.28420][eb5] ~MediaFilterCamera time:6384072
enter.
[007:506] [2025-10-10 13:31:28 +0000.28451][eb5] StopPullFrameAndWriteMp4
time:6384072 enter.
[007:507] [2025-10-10 13:31:28 +0000.29439][182b] stop recording
[007:507] [2025-10-10 13:31:28 +0000.29523][182b] we have stopped recording before
[007:507] [2025-10-10 13:31:28 +0000.29650][eb5] StopPullFrameAndWriteMp4 leave.
expire time = 1 ms
[007:508] [2025-10-10 13:31:28 +0000.30466][eb5] DestroyPipelineAndFilters
time:6384074 enter.
[007:508] [2025-10-10 13:31:28 +0000.30619][eb5] DestroyPipelineAndFilters leave.
expire time = 0 ms
[007:508] [2025-10-10 13:31:28 +0000.30670][eb5] AppDeviceManagerStopMic
[007:508] [2025-10-10 13:31:28 +0000.30789][eb5] AppDeviceManagerStopMic::mic
status is on
[007:509] [2025-10-10 13:31:28 +0000.30824][eb5] Try to stop webrtc device.
[007:509] [2025-10-10 13:31:28 +0000.30858][eb5] Set record state to
[Link]
[007:563] [2025-10-10 13:31:28 +0000.85180][eb5] Try to destory the
[Link]
[007:763] [2025-10-10 13:31:28 +0000.285319][eb5] DestroyAudioRecorder:
[007:763] [2025-10-10 13:31:28 +0000.285387][eb5] Cleanup the buffer queue in the
recorder.
[007:763] [2025-10-10 13:31:28 +0000.285408][eb5] Destroy the recorder.
[007:764] [2025-10-10 13:31:28 +0000.286461][eb5] StopRecording finished.
[007:764] [2025-10-10 13:31:28 +0000.286527][eb5] The stop recording success.
[007:764] [2025-10-10 13:31:28 +0000.286543][eb5]
AudioDeviceDataHandler::StopMicProcess
[007:768] [2025-10-10 13:31:28 +0000.290410][eb5] AppDeviceManager stop.
[007:768] [2025-10-10 13:31:28 +0000.290510][eb5] Rlease the webrtc device object.
[007:769] [2025-10-10 13:31:28 +0000.291323][eb5] OpenSlesInput destruct.
[007:769] [2025-10-10 13:31:28 +0000.291406][eb5] OpenSlesOutput destruct.
[007:770] [2025-10-10 13:31:28 +0000.292421][eb5] EventDispatchServerScope destruct
[007:770] [2025-10-10 13:31:28 +0000.292492][eb5]
Warning([Link]): PhysicalSocketServer destruct
[007:771] [2025-10-10 13:31:28 +0000.293087][eb5] ~AudioDeviceDataHandler
[007:771] [2025-10-10 13:31:28 +0000.293454][eb5] AppDeviceManagerDestruct.
[007:771] [2025-10-10 13:31:28 +0000.293501][eb5] ~AppDeviceManager:
[007:771] [2025-10-10 13:31:28 +0000.293546][eb5] ~CpuOverloadDetect time:6384337
enter.
[007:772] [2025-10-10 13:31:28 +0000.293837][eb5] ~CpuOverloadDetect leave. expire
time = 1 ms
[007:783] [2025-10-10 13:31:28 +0000.304960][eb5] Destruct BeautifyReader begin...
[007:783] [2025-10-10 13:31:28 +0000.305035][eb5] Destruct BeautifyReader done.
[007:783] [2025-10-10 13:31:28 +0000.305063][eb5] ~MediaFilterCamera leave. expire
time = 277 ms
[007:783] [2025-10-10 13:31:28 +0000.305191][eb5] ~GLESContext:
[007:784] [2025-10-10 13:31:28 +0000.306199][eb5] GLESContext destruct finish.
[007:784] [2025-10-10 13:31:28 +0000.306268][eb5] ~RecordingSessionInternalSimple:
RecordingSessionInternalSimple::~RecordingSessionInternalSimple
[007:784] [2025-10-10 13:31:28 +0000.306572][eb5] global uninited!
[007:787] [2025-10-10 13:31:28 +0000.309612][eb5] clear AppID 50011
[007:787] [2025-10-10 13:31:28 +0000.309692][eb5] UnRegister JVM for Xplatform util
[007:787] [2025-10-10 13:31:28 +0000.309721][eb5] Dispose::unregister webrtc video
engine
[007:787] [2025-10-10 13:31:28 +0000.309758][eb5] Init the android object with
jvm:0x0 env:0x0 context:0x0
[007:787] [2025-10-10 13:31:28 +0000.309778][eb5] SetAndroidMediaCodecObjects
time:6384353 enter.
[007:788] [2025-10-10 13:31:28 +0000.309806][eb5] ClearAndroidMediaCodecObjects
time:6384354 enter.
[007:788] [2025-10-10 13:31:28 +0000.309835][eb5] ClearAndroidMediaCodecObjects
leave. expire time = 0 ms
[007:788] [2025-10-10 13:31:28 +0000.309864][eb5] SetAndroidMediaCodecObjects
leave. expire time = 1 ms
[007:788] [2025-10-10 13:31:28 +0000.309879][eb5] SetAndroidMediaCodecObjects
time:6384354 enter.
[007:788] [2025-10-10 13:31:28 +0000.309891][eb5] SetAndroidMediaCodecObjects:
SetAndroidMediaCodecObjects:: jvm :0x0
[007:788] [2025-10-10 13:31:28 +0000.309944][eb5] ClearAndroidMediaCodecObjects
time:6384354 enter.
[007:788] [2025-10-10 13:31:28 +0000.309966][eb5] ClearAndroidMediaCodecObjects
leave. expire time = 0 ms
[007:788] [2025-10-10 13:31:28 +0000.309992][eb5] SetAndroidMediaCodecObjects:
SetAndroidMediaCodecObjects failed
[007:788] [2025-10-10 13:31:28 +0000.310005][eb5] SetAndroidMediaCodecObjects
leave. expire time = 0 ms
[007:788] [2025-10-10 13:31:28 +0000.310024][eb5] Dispose::unregister webrtc voice
engine
[007:788] [2025-10-10 13:31:28 +0000.310050][eb5] Set the android objects with
jvm:0x0 env:0x0 context:0x0
[007:788] [2025-10-10 13:31:28 +0000.310077][eb5] SystemUtil UnInit done
[011:444] [2025-10-10 13:31:31 +0000.966446][eb5] Register JVM for xplatform util
[011:450] [2025-10-10 13:31:31 +0000.972577][eb5] Log to
file:/storage/emulated/0/voip-data/[Link]/[Link] start time:2025-10-
10 13:31:31 +0000
[011:450] [2025-10-10 13:31:31 +0000.972647][eb5] set AppID=50011 old AppID=-1
[011:450] [2025-10-10 13:31:31 +0000.972666][eb5] Init the android object with
jvm:0xb4000076bbbf6180 env:0x75ee003440 context:0x758ba23a08
[011:450] [2025-10-10 13:31:31 +0000.972684][eb5] SetAndroidMediaCodecObjects
time:6388016 enter.
[011:450] [2025-10-10 13:31:31 +0000.972733][eb5] SetAndroidMediaCodecObjects
leave. expire time = 0 ms
[011:450] [2025-10-10 13:31:31 +0000.972761][eb5] SetAndroidMediaCodecObjects
time:6388016 enter.
[011:451] [2025-10-10 13:31:31 +0000.972806][eb5] SetAndroidMediaCodecObjects:
SetAndroidMediaCodecObjects:: jvm :0xb4000076bbbf6180
[011:451] [2025-10-10 13:31:31 +0000.972827][eb5] SetAndroidMediaCodecObjects:
SetAndroidMediaCodecObjects success g_jvm_:0xb4000076bbbf6180 address:0x74bb2ed760
[011:452] [2025-10-10 13:31:31 +0000.973875][eb5] SetAndroidMediaCodecObjects:
SetAndroidMediaCodecObjects success g_jvm_encoder_:0xb4000076bbbf6180
address:0x74bb2ed760
[011:452] [2025-10-10 13:31:31 +0000.974014][eb5] SetAndroidMediaCodecObjects
leave. expire time = 2 ms
[011:452] [2025-10-10 13:31:31 +0000.974057][eb5] Set the android objects with
jvm:0xb4000076bbbf6180 env:0x75ee003440 context:0x758ba23a08
[011:452] [2025-10-10 13:31:31 +0000.974108][eb5] audio jni debug :manager
SetAndroidAudioDeviceObjects env:0x75ee003440
[011:452] [2025-10-10 13:31:31 +0000.974169][eb5] SystemUtil Init done
[011:452] [2025-10-10 13:31:31 +0000.974630][eb5]
Java_com_xiaomi_recordmediaprocess_MediaEffectCamera_ConstructMediaEffectCameraJni:
[011:452] [2025-10-10 13:31:31 +0000.974754][eb5] MediaFilterCamera
[011:452] [2025-10-10 13:31:31 +0000.974790][eb5] RecordingSessionInternalSimple:
Create session internal:720 X 1280 fps:30
[011:453] [2025-10-10 13:31:31 +0000.974880][eb5] createSessionInternal: create
session with video size:720 X 1280 fps:30 bitrate:31457280
[011:453] [2025-10-10 13:31:31 +0000.974909][eb5] Recording session using default
bitrate support by app:31457280
[011:453] [2025-10-10 13:31:31 +0000.974983][1874] Error([Link]): Set the
pthread name failed with error:34 name:Thread 0x0x754392bc40
[011:453] [2025-10-10 13:31:31 +0000.975032][1874] setAudioChannelCount_w:
RecordingSessionInternalSimple:set the audio channel count:2
[011:453] [2025-10-10 13:31:31 +0000.975133][eb5] setAudioSampleRate:
RecordingSessionInternalSimple:set the audio bitrate:44100
[011:454] [2025-10-10 13:31:31 +0000.976667][eb5] Error([Link]): Open the file
failed. error:2
[011:454] [2025-10-10 13:31:31 +0000.976736][eb5]
Error(key_value_pair_store.cc:130): load the data failed from: voip_config.ini
[011:454] [2025-10-10 13:31:31 +0000.976761][eb5] The device model: m2101k6i
usingSoftwareAEC value: 0
[011:460] [2025-10-10 13:31:31 +0000.982802][eb5] Error([Link]): Open the file
failed. error:2
[011:461] [2025-10-10 13:31:31 +0000.982880][eb5]
Error(key_value_pair_store.cc:130): load the data failed from:
/storage/emulated/0/voip-data/[Link]/voip_config.ini
[011:461] [2025-10-10 13:31:31 +0000.982903][eb5] The device model: m2101k6i
usingHardwareAEC value: 0
[011:461] [2025-10-10 13:31:31 +0000.982944][eb5] The machine device: m2101k6i
usingHardwareAEC value: 0
[011:461] [2025-10-10 13:31:31 +0000.982960][eb5] Using Default AEC type: software
AEC
[011:462] [2025-10-10 13:31:31 +0000.983886][eb5] The device model: m2101k6i enum
value: 0
[011:462] [2025-10-10 13:31:31 +0000.984353][eb5] GetMachineModel is M2101K6I
[011:462] [2025-10-10 13:31:31 +0000.984388][eb5] GetMachineInfo: M2101K6I
[011:462] [2025-10-10 13:31:31 +0000.984405][eb5] Construct BeautifyReader begin...
[011:462] [2025-10-10 13:31:31 +0000.984433][eb5] dumpStickerRgba:0
dumpStickerYuv:0
[011:462] [2025-10-10 13:31:31 +0000.984446][eb5] Construct BeautifyReader done.
[011:469] [2025-10-10 13:31:31 +0000.991774][eb5] AppDeviceManagerStartCamera::The
result of start thread is: 1 micOn:0
[011:470] [2025-10-10 13:31:31 +0000.991882][eb5] AppDeviceManager telnet server
for statistics started......
[011:470] [2025-10-10 13:31:31 +0000.991945][1877] Error([Link]): Set the
pthread name failed with error:34 name:Thread 0x0x7524d578a0
[011:470] [2025-10-10 13:31:31 +0000.992617][eb5] CpuOverloadDetect time:6388036
enter.
[011:471] [2025-10-10 13:31:31 +0000.993511][eb5] CpuOverloadDetect leave. expire
time = 1 ms
[011:472] [2025-10-10 13:31:31 +0000.994100][eb5] AppDeviceMana GetOpenslVoiceMode
before get setting: 1
[011:472] [2025-10-10 13:31:31 +0000.994154][eb5] AppDeviceMana GetOpenslVoiceMode
after get setting: 1
[011:472] [2025-10-10 13:31:31 +0000.994347][eb5] AudioManagerAndroid
getProperty:[Link].OUTPUT_SAMPLE_RATE
[011:472] [2025-10-10 13:31:31 +0000.994599][1878] Error([Link]): Set the
pthread name failed with error:34 name:Thread 0x0x7530996b00
[011:473] [2025-10-10 13:31:31 +0000.995515][eb5] AudioManagerAndroid
getProperty:[Link].OUTPUT_FRAMES_PER_BUFFER
[011:474] [2025-10-10 13:31:31 +0000.995926][eb5] CreatePlatformSpecificObjects:
[011:474] [2025-10-10 13:31:31 +0000.996031][eb5] audio device use opensle input
and opensl output
[011:474] [2025-10-10 13:31:31 +0000.996098][eb5] Create OpenSLES output module
with java VM support.
[011:474] [2025-10-10 13:31:31 +0000.996673][eb5] AudioManagerAndroid
getProperty:[Link].OUTPUT_SAMPLE_RATE
[011:475] [2025-10-10 13:31:31 +0000.997320][eb5] AudioManagerAndroid
getProperty:[Link].OUTPUT_FRAMES_PER_BUFFER
[011:475] [2025-10-10 13:31:31 +0000.997596][eb5] Create OpenSLES output module
with buffer num:1
[011:475] [2025-10-10 13:31:31 +0000.997757][eb5] AudioManagerAndroid
getProperty:[Link].OUTPUT_SAMPLE_RATE
[011:476] [2025-10-10 13:31:31 +0000.997941][eb5] AudioManagerAndroid
getProperty:[Link].OUTPUT_FRAMES_PER_BUFFER
[011:476] [2025-10-10 13:31:31 +0000.998115][eb5] Create OpenSLES input module with
java VM support.
[011:476] [2025-10-10 13:31:31 +0000.998156][eb5] Create OpenSLES input module with
buffer num:1
[011:476] [2025-10-10 13:31:31 +0000.998193][eb5] Error([Link]): Init the
output and input for audio device template.
[011:476] [2025-10-10 13:31:31 +0000.998216][eb5] Init the output device.
[011:476] [2025-10-10 13:31:31 +0000.998248][eb5] Init the opensl input.
[011:476] [2025-10-10 13:31:31 +0000.998281][eb5] AppDeviceManager get setting
samplerate: 0
[011:476] [2025-10-10 13:31:31 +0000.998745][eb5] The device model: m2101k6i enum
value: 0
[011:477] [2025-10-10 13:31:31 +0000.999597][eb5] The device model: m2101k6i enum
value: 0
[011:477] [2025-10-10 13:31:31 +0000.999638][eb5] Set the sample rate to be:48000
[011:477] [2025-10-10 13:31:31 +0000.999668][eb5] Enable the recording stereo:0
[011:477] [2025-10-10 13:31:31 +0000.999698][eb5] Set the playout as stereo:1
[011:477] [2025-10-10 13:31:31 +0000.999720][eb5] Init the microphone.
[011:478] [2025-10-10 13:31:32 +0000.28][eb5] Update the recording sample rate to
be: 48000
[011:478] [2025-10-10 13:31:32 +0000.67][eb5] Init the speaker.
[011:478] [2025-10-10 13:31:32 +0000.94][eb5] Low latency buffer size:144 low
sample rate:48000
[011:478] [2025-10-10 13:31:32 +0000.320][eb5] Using 1 x 10ms for an audio frame.
[011:481] [2025-10-10 13:31:32 +0000.3768][eb5] Error(splitting_filter.cc:26):
Splitting filter only support two or three bands now.
[011:482] [2025-10-10 13:31:32 +0000.3871][eb5] Error(splitting_filter.cc:26):
Splitting filter only support two or three bands now.
[011:482] [2025-10-10 13:31:32 +0000.3916][eb5] Error(splitting_filter.cc:26):
Splitting filter only support two or three bands now.
[011:490] [2025-10-10 13:31:32 +0000.11888][eb5] The device model:m2101k6i
[011:490] [2025-10-10 13:31:32 +0000.11958][eb5] speaker output factor:100
defaultFactor: 100
[011:490] [2025-10-10 13:31:32 +0000.12174][eb5] headset output factor:100
defaultFactor: 100
[011:490] [2025-10-10 13:31:32 +0000.12513][eb5] AppDeviceManagerStart finished.
[011:490] [2025-10-10 13:31:32 +0000.12543][eb5] AppDeviceManagerStartMic::mic
status is off
[011:490] [2025-10-10 13:31:32 +0000.12642][eb5] AppDeviceManagerStartMic update
aec type: 2
[011:490] [2025-10-10 13:31:32 +0000.12668][eb5] AppDeviceManagerStartMic update
voiceChangeMode: 4
[011:490] [2025-10-10 13:31:32 +0000.12682][eb5]
AudioDeviceDataHandler::setVoiceChangeMode, mode : 4
[011:490] [2025-10-10 13:31:32 +0000.12694][eb5]
AudioDeviceDataHandler::StartMicProcess
[011:490] [2025-10-10 13:31:32 +0000.12783][eb5] Try to start webrtc recording
device.
[011:491] [2025-10-10 13:31:32 +0000.12808][eb5] StartRecording. threadID:3765
[011:491] [2025-10-10 13:31:32 +0000.12859][eb5] default mode: Set the recording
mode to voice communication to enable HW AEC .
[011:491] [2025-10-10 13:31:32 +0000.12879][eb5] Set the recording mode before
getSetting: 4
[011:491] [2025-10-10 13:31:32 +0000.12897][eb5] Set the recording mode after
getSetting: 1
[011:491] [2025-10-10 13:31:32 +0000.13064][1879] Error([Link]): Set the
pthread name failed with error:34 name:AudioDeviceDataHandler gapProcessThread
[011:540] [2025-10-10 13:31:32 +0000.61820][eb5] StartRecording finished.
[011:540] [2025-10-10 13:31:32 +0000.62099][eb5] audio: start the audio mic checker
timer.
[011:541] [2025-10-10 13:31:32 +0000.63230][eb5] machine model :redmi
[011:541] [2025-10-10 13:31:32 +0000.63366][eb5] Support this machine model :redmi
[011:541] [2025-10-10 13:31:32 +0000.63442][eb5] global inited! current sdk
version: 07-20-936c45f
[012:012] [2025-10-10 13:31:32 +0000.534157][10c2]
Java_com_xiaomi_recordmediaprocess_OpenGlRender_SetCurrentGLContextJni:
[012:012] [2025-10-10 13:31:32 +0000.534415][1875] MediaFilterCamera, recording
file context:0x752348ff00 input texture:20
[012:012] [2025-10-10 13:31:32 +0000.534490][1875] GLESContext:
[012:012] [2025-10-10 13:31:32 +0000.534542][1875] The result of eglGetDisplay is:
0xb4000076bbc68480
[012:013] [2025-10-10 13:31:32 +0000.535298][1875] The result of creation:
0x75248d8e00
[012:013] [2025-10-10 13:31:32 +0000.535419][1875] The result of
eglCreatePbufferSurface is: 0x75248d8f00
[012:014] [2025-10-10 13:31:32 +0000.536181][10c2]
Java_com_xiaomi_recordmediaprocess_OpenGlRender_SetCurrentGLContextJni:
g_eglcontext: 0x752348ff00 input_texture: 20
[012:428] [2025-10-10 13:31:32 +0000.950401][1879] Run AGC when audioType = 0
[012:428] [2025-10-10 13:31:32 +0000.950524][1879]
AudioDeviceDataHandler::MixAndSendOutFrame
[012:587] [2025-10-10 13:31:33 +0000.109095][1879] haveEnoughProcessedData
[Link]: 20
[013:073] [2025-10-10 13:31:33 +0000.595201][eb5]
Java_com_xiaomi_recordmediaprocess_MediaEffectCamera_DestructMediaEffectCameraJni:
[013:073] [2025-10-10 13:31:33 +0000.595310][eb5] ~MediaFilterCamera time:6389639
enter.
[013:073] [2025-10-10 13:31:33 +0000.595343][eb5] StopPullFrameAndWriteMp4
time:6389639 enter.
[013:074] [2025-10-10 13:31:33 +0000.596174][1874] stop recording
[013:074] [2025-10-10 13:31:33 +0000.596240][1874] we have stopped recording before
[013:074] [2025-10-10 13:31:33 +0000.596323][eb5] StopPullFrameAndWriteMp4 leave.
expire time = 1 ms
[013:075] [2025-10-10 13:31:33 +0000.596928][eb5] DestroyPipelineAndFilters
time:6389641 enter.
[013:075] [2025-10-10 13:31:33 +0000.597011][eb5] DestroyPipelineAndFilters leave.
expire time = 0 ms
[013:075] [2025-10-10 13:31:33 +0000.597037][eb5] AppDeviceManagerStopMic
[013:075] [2025-10-10 13:31:33 +0000.597099][eb5] AppDeviceManagerStopMic::mic
status is on
[013:075] [2025-10-10 13:31:33 +0000.597129][eb5] Try to stop webrtc device.
[013:075] [2025-10-10 13:31:33 +0000.597160][eb5] Set record state to
[Link]
[013:133] [2025-10-10 13:31:33 +0000.655325][eb5] Try to destory the
[Link]
[013:333] [2025-10-10 13:31:33 +0000.855525][eb5] DestroyAudioRecorder:
[013:333] [2025-10-10 13:31:33 +0000.855603][eb5] Cleanup the buffer queue in the
recorder.
[013:333] [2025-10-10 13:31:33 +0000.855625][eb5] Destroy the recorder.
[013:348] [2025-10-10 13:31:33 +0000.870344][eb5] StopRecording finished